Terminal Aerodrome Forecast
Issued by NWS Cleveland, OH

Home | Current Version | Previous Version | Graphics & Text | Print | Product List | Glossary On
Versions: 1 2 3 4 5 6 7 8 9 10 11 12 13 14 15 16 17 18 19
000
FTUS41 KCLE 251500 AAA
TAFTOL
TAF AMD
KTOL 251509Z 2515/2612 08012KT P6SM VCSH BKN015 OVC060
     FM260000 05012KT P6SM SCT040 BKN120
     FM260400 04008KT P6SM SCT120 BKN250
     FM260800 02008KT P6SM SCT250=

USA.gov is the U.S. government's official web portal to all federal, state and local government web resources and services.